createdAt,value
2017-10-10T00:01:18.988Z,12.43
2017-10-10T00:06:14.700Z,12.43
2017-10-10T00:11:10.720Z,12.36
2017-10-10T00:16:06.663Z,12.49
2017-10-10T00:21:02.773Z,12.43
2017-10-10T00:26:00.606Z,12.54
2017-10-10T00:30:55.856Z,12.55
2017-10-10T00:35:51.574Z,12.32
2017-10-10T00:40:47.314Z,12.42
2017-10-10T00:45:42.924Z,12.31
2017-10-10T00:50:40.112Z,12.35
2017-10-10T00:55:37.112Z,12.43
2017-10-10T01:00:32.598Z,12.37
2017-10-10T01:05:29.503Z,12.42
2017-10-10T01:10:24.878Z,12.40
2017-10-10T01:15:20.607Z,12.40
2017-10-10T01:20:17.676Z,12.40
2017-10-10T01:25:14.283Z,12.39
2017-10-10T01:30:11.000Z,12.53
2017-10-10T01:35:06.636Z,12.40
2017-10-10T01:40:02.479Z,12.54
2017-10-10T01:44:58.304Z,12.57
2017-10-10T01:49:55.105Z,12.58
2017-10-10T01:54:51.169Z,12.57
2017-10-10T01:59:46.971Z,12.55
2017-10-10T02:04:42.824Z,12.50
2017-10-10T02:09:39.515Z,12.57
2017-10-10T02:14:35.189Z,12.50
2017-10-10T02:19:30.863Z,12.54
2017-10-10T02:24:26.899Z,12.39
2017-10-10T02:29:22.921Z,12.43
2017-10-10T02:34:18.959Z,12.42
2017-10-10T02:39:14.827Z,12.29
2017-10-10T02:44:11.727Z,12.37
2017-10-10T02:49:08.178Z,12.39
2017-10-10T02:54:03.707Z,12.46
2017-10-10T02:58:59.553Z,12.43
2017-10-10T03:03:56.343Z,12.47
2017-10-10T03:08:52.705Z,12.45
2017-10-10T03:13:48.784Z,12.54
2017-10-10T03:18:45.744Z,12.40
2017-10-10T03:23:41.860Z,12.57
2017-10-10T03:28:37.944Z,12.57
2017-10-10T03:33:33.974Z,12.54
2017-10-10T03:38:29.746Z,12.62
2017-10-10T03:43:25.779Z,12.61
2017-10-10T03:48:22.728Z,12.67
2017-10-10T03:53:18.246Z,12.73
2017-10-10T03:58:15.144Z,12.70
2017-10-10T04:03:10.755Z,12.67
2017-10-10T04:08:06.902Z,12.55
2017-10-10T04:13:02.682Z,12.67
2017-10-10T04:17:58.585Z,12.62
2017-10-10T04:22:55.525Z,12.68
2017-10-10T04:27:51.346Z,12.53
2017-10-10T04:32:47.748Z,12.61
2017-10-10T04:37:44.852Z,12.60
2017-10-10T04:42:40.313Z,12.78
2017-10-10T04:47:36.707Z,12.78
2017-10-10T04:52:32.594Z,12.72
2017-10-10T04:57:28.255Z,12.73
2017-10-10T05:02:25.126Z,12.72
2017-10-10T05:07:20.635Z,12.76
2017-10-10T05:12:16.331Z,12.70
2017-10-10T05:17:12.331Z,12.80
2017-10-10T05:22:08.312Z,12.79
2017-10-10T05:27:04.592Z,12.78
2017-10-10T05:32:00.572Z,12.78
2017-10-10T05:36:56.458Z,12.78
2017-10-10T05:41:52.274Z,12.78
2017-10-10T05:46:49.099Z,12.73
2017-10-10T05:51:45.691Z,12.73
2017-10-10T05:56:42.140Z,12.78
2017-10-10T06:01:39.007Z,12.76
2017-10-10T06:06:34.546Z,12.80
2017-10-10T06:11:30.801Z,12.78
2017-10-10T06:16:27.509Z,12.85
2017-10-10T06:21:23.090Z,12.80
2017-10-10T06:26:18.661Z,12.90
2017-10-10T06:31:14.744Z,12.85
2017-10-10T06:36:10.453Z,12.91
2017-10-10T06:41:07.429Z,13.00
2017-10-10T06:46:02.680Z,12.98
2017-10-10T06:51:02.961Z,12.97
2017-10-10T06:55:58.101Z,12.98
2017-10-10T07:00:53.683Z,13.04
2017-10-10T07:05:50.668Z,13.05
2017-10-10T07:10:46.456Z,13.18
2017-10-10T07:15:42.381Z,13.12
2017-10-10T07:20:39.392Z,13.16
2017-10-10T07:25:36.065Z,13.11
2017-10-10T07:30:33.429Z,13.16
2017-10-10T07:35:28.749Z,13.28
2017-10-10T07:40:26.202Z,13.33
2017-10-10T07:45:22.220Z,13.41
2017-10-10T07:50:19.045Z,13.56
2017-10-10T07:55:14.660Z,13.56
2017-10-10T08:00:12.028Z,13.47
2017-10-10T08:05:08.742Z,13.52
2017-10-10T08:10:04.187Z,13.52
2017-10-10T08:14:59.963Z,13.62
2017-10-10T08:19:56.721Z,13.70
2017-10-10T08:24:53.625Z,13.71
2017-10-10T08:29:50.063Z,13.71
2017-10-10T08:34:45.208Z,13.85
2017-10-10T08:39:41.137Z,13.86
2017-10-10T08:44:38.139Z,13.78
2017-10-10T08:49:33.636Z,13.86
2017-10-10T08:54:29.685Z,13.87
2017-10-10T08:59:25.589Z,13.89
2017-10-10T09:04:22.577Z,13.97
2017-10-10T09:09:18.909Z,14.35
2017-10-10T09:14:16.115Z,14.48
2017-10-10T09:19:13.058Z,14.70
2017-10-10T09:24:10.019Z,14.84
2017-10-10T09:29:06.884Z,14.97
2017-10-10T09:34:02.422Z,14.96
2017-10-10T09:38:57.998Z,14.89
2017-10-10T09:43:54.384Z,15.11
2017-10-10T09:48:51.391Z,15.24
2017-10-10T09:53:47.243Z,15.22
2017-10-10T09:58:43.883Z,15.18
2017-10-10T10:03:39.323Z,15.17
2017-10-10T10:08:35.028Z,15.06
2017-10-10T10:13:30.917Z,15.14
2017-10-10T10:18:27.197Z,15.36
2017-10-10T10:23:23.377Z,15.52
2017-10-10T10:28:19.300Z,15.75
2017-10-10T10:33:15.588Z,15.92
2017-10-10T10:38:11.900Z,16.16
2017-10-10T10:43:07.790Z,16.17
2017-10-10T10:48:03.653Z,16.10
2017-10-10T10:52:59.351Z,15.97
2017-10-10T10:57:55.934Z,15.94
2017-10-10T11:02:51.240Z,15.82
2017-10-10T11:07:47.177Z,15.75
2017-10-10T11:12:43.072Z,15.88
2017-10-10T11:17:39.135Z,15.91
2017-10-10T11:22:35.508Z,16.23
2017-10-10T11:27:31.661Z,16.16
2017-10-10T11:32:28.270Z,16.17
2017-10-10T11:37:23.636Z,16.16
2017-10-10T11:42:19.291Z,16.10
2017-10-10T11:47:15.189Z,16.31
2017-10-10T11:52:11.493Z,16.05
2017-10-10T11:57:07.361Z,16.17
2017-10-10T12:02:03.483Z,16.53
2017-10-10T12:06:59.585Z,16.46
2017-10-10T12:11:56.007Z,16.54
2017-10-10T12:16:53.011Z,16.65
2017-10-10T12:21:49.670Z,16.49
2017-10-10T12:26:45.938Z,16.33
2017-10-10T12:31:42.824Z,16.42
2017-10-10T12:36:39.197Z,16.24
2017-10-10T12:41:34.884Z,16.15
2017-10-10T12:46:31.696Z,16.15
2017-10-10T12:51:27.374Z,16.13
2017-10-10T12:56:23.138Z,16.26
2017-10-10T13:01:19.899Z,16.38
2017-10-10T13:06:16.632Z,16.21
2017-10-10T13:11:12.571Z,16.24
2017-10-10T13:16:09.628Z,16.36
2017-10-10T13:21:05.047Z,16.16
2017-10-10T13:26:00.874Z,15.84
2017-10-10T13:30:56.592Z,15.64
2017-10-10T13:35:53.394Z,15.76
2017-10-10T13:40:49.055Z,15.73
2017-10-10T13:45:44.660Z,15.59
2017-10-10T13:50:41.154Z,15.49
2017-10-10T13:55:37.411Z,15.40
2017-10-10T14:00:34.970Z,15.58
2017-10-10T14:05:31.274Z,15.51
2017-10-10T14:10:27.275Z,15.33
2017-10-10T14:15:22.821Z,15.35
2017-10-10T14:20:18.888Z,15.24
2017-10-10T14:25:14.641Z,15.19
2017-10-10T14:30:12.403Z,15.15
2017-10-10T14:35:08.091Z,15.17
2017-10-10T14:40:03.863Z,15.06
2017-10-10T14:44:59.537Z,14.96
2017-10-10T14:49:56.289Z,14.82
2017-10-10T14:54:51.891Z,14.82
2017-10-10T14:59:48.706Z,14.62
2017-10-10T15:04:44.226Z,14.51
2017-10-10T15:09:39.684Z,14.55
2017-10-10T15:14:35.664Z,14.53
2017-10-10T15:19:31.230Z,14.41
2017-10-10T15:24:27.128Z,14.58
2017-10-10T15:29:22.871Z,14.50
2017-10-10T15:34:18.817Z,14.47
2017-10-10T15:39:14.788Z,14.51
2017-10-10T15:44:10.415Z,14.43
2017-10-10T15:49:06.113Z,14.44
2017-10-10T15:54:01.893Z,14.28
2017-10-10T15:58:57.687Z,14.47
2017-10-10T16:03:53.493Z,14.44
2017-10-10T16:08:49.881Z,14.53
2017-10-10T16:13:45.772Z,14.58
2017-10-10T16:18:43.514Z,14.51
2017-10-10T16:23:39.085Z,14.40
2017-10-10T16:28:35.975Z,14.43
2017-10-10T16:33:32.824Z,14.47
2017-10-10T16:38:29.008Z,14.44
2017-10-10T16:43:24.583Z,14.48
2017-10-10T16:48:20.615Z,14.54
2017-10-10T16:53:16.299Z,14.47
2017-10-10T16:58:12.090Z,14.51
2017-10-10T17:03:08.899Z,14.37
2017-10-10T17:08:05.179Z,14.45
2017-10-10T17:13:00.942Z,14.47
2017-10-10T17:17:56.385Z,14.37
2017-10-10T17:22:52.628Z,14.55
2017-10-10T17:27:48.495Z,14.40
2017-10-10T17:32:44.452Z,14.44
2017-10-10T17:37:41.294Z,14.48
2017-10-10T17:42:36.808Z,14.45
2017-10-10T17:47:33.929Z,14.43
2017-10-10T17:52:30.380Z,14.54
2017-10-10T17:57:28.075Z,14.53
2017-10-10T18:02:24.256Z,14.54
2017-10-10T18:07:19.757Z,14.50
2017-10-10T18:12:15.629Z,14.53
2017-10-10T18:17:12.354Z,14.62
2017-10-10T18:22:07.949Z,14.55
2017-10-10T18:27:03.704Z,14.53
2017-10-10T18:31:59.723Z,14.51
2017-10-10T18:36:56.760Z,14.59
2017-10-10T18:41:52.317Z,14.60
2017-10-10T18:46:49.023Z,14.59
2017-10-10T18:51:44.518Z,14.47
2017-10-10T18:56:40.397Z,14.58
2017-10-10T19:01:37.198Z,14.62
2017-10-10T19:06:33.549Z,14.51
2017-10-10T19:11:29.300Z,14.51
2017-10-10T19:16:25.045Z,14.47
2017-10-10T19:21:20.656Z,14.44
2017-10-10T19:26:17.404Z,14.48
2017-10-10T19:31:13.028Z,14.44
2017-10-10T19:36:08.944Z,14.44
2017-10-10T19:41:04.696Z,14.45
2017-10-10T19:46:01.353Z,14.44
2017-10-10T19:50:58.665Z,14.44
2017-10-10T19:55:55.293Z,14.47
2017-10-10T20:00:52.008Z,14.51
2017-10-10T20:05:48.838Z,14.51
2017-10-10T20:10:44.673Z,14.44
2017-10-10T20:15:40.576Z,14.45
2017-10-10T20:20:38.058Z,14.53
2017-10-10T20:25:33.430Z,14.50
2017-10-10T20:30:29.647Z,14.68
2017-10-10T20:35:25.619Z,14.63
2017-10-10T20:40:22.032Z,14.62
2017-10-10T20:45:17.574Z,14.68
2017-10-10T20:50:13.456Z,14.79
2017-10-10T20:55:09.752Z,14.77
2017-10-10T21:00:06.629Z,14.79
2017-10-10T21:05:02.474Z,14.82
2017-10-10T21:09:59.397Z,14.88
2017-10-10T21:14:54.647Z,14.82
2017-10-10T21:19:50.840Z,14.92
2017-10-10T21:24:46.712Z,14.84
2017-10-10T21:29:42.372Z,14.88
2017-10-10T21:34:38.546Z,14.86
2017-10-10T21:39:34.603Z,14.86
2017-10-10T21:44:31.039Z,14.94
2017-10-10T21:49:27.145Z,14.89
2017-10-10T21:54:23.007Z,14.96
2017-10-10T21:59:19.867Z,14.84
2017-10-10T22:04:15.328Z,14.96
2017-10-10T22:09:10.971Z,14.99
2017-10-10T22:14:07.024Z,15.00
2017-10-10T22:19:02.717Z,14.99
2017-10-10T22:24:00.078Z,15.04
2017-10-10T22:28:56.570Z,15.09
2017-10-10T22:33:52.058Z,15.06
2017-10-10T22:38:48.000Z,15.09
2017-10-10T22:43:44.804Z,15.09
2017-10-10T22:48:40.352Z,15.09
2017-10-10T22:53:37.277Z,15.11
2017-10-10T22:58:33.014Z,15.07
2017-10-10T23:03:28.798Z,15.00
2017-10-10T23:08:24.614Z,15.06
2017-10-10T23:13:20.552Z,15.03
2017-10-10T23:18:16.338Z,15.06
2017-10-10T23:23:12.557Z,15.02
2017-10-10T23:28:08.582Z,14.96
2017-10-10T23:33:05.608Z,14.92
2017-10-10T23:38:01.154Z,14.91
2017-10-10T23:42:57.239Z,14.81
2017-10-10T23:47:52.911Z,14.77
2017-10-10T23:52:48.838Z,14.85
2017-10-10T23:57:44.766Z,14.82
